createdAt,value
2022-08-23T00:02:01.988Z,16.73
2022-08-23T00:04:34.729Z,16.81
2022-08-23T00:07:03.777Z,16.86
2022-08-23T00:09:30.324Z,16.86
2022-08-23T00:12:29.295Z,16.89
2022-08-23T00:14:55.801Z,16.89
2022-08-23T00:17:33.335Z,16.90
2022-08-23T00:20:02.457Z,16.87
2022-08-23T00:22:28.930Z,16.86
2022-08-23T00:24:55.381Z,16.89
2022-08-23T00:27:21.805Z,16.92
2022-08-23T00:29:53.647Z,16.91
2022-08-23T00:32:25.590Z,16.91
2022-08-23T00:34:52.271Z,16.92
2022-08-23T00:37:19.773Z,16.98
2022-08-23T00:39:46.521Z,17.02
2022-08-23T00:42:58.798Z,17.01
2022-08-23T00:46:00.568Z,17.05
2022-08-23T00:48:27.049Z,17.04
2022-08-23T00:51:04.473Z,16.99
2022-08-23T00:53:38.025Z,17.09
2022-08-23T00:56:07.589Z,17.08
2022-08-23T00:58:34.203Z,17.03
2022-08-23T01:01:02.199Z,17.07
2022-08-23T01:03:38.941Z,17.06
2022-08-23T01:06:17.009Z,17.03
2022-08-23T01:08:49.406Z,17.09
2022-08-23T01:11:22.966Z,17.08
2022-08-23T01:14:01.799Z,17.09
2022-08-23T01:16:34.059Z,17.10
2022-08-23T01:19:02.381Z,17.15
2022-08-23T01:22:19.010Z,17.09
2022-08-23T01:25:07.257Z,17.09
2022-08-23T01:27:33.608Z,16.97
2022-08-23T01:30:00.755Z,17.04
2022-08-23T01:32:29.774Z,17.01
2022-08-23T01:34:56.381Z,17.05
2022-08-23T01:37:23.088Z,17.11
2022-08-23T01:39:49.779Z,17.05
2022-08-23T01:42:16.615Z,17.02
2022-08-23T01:44:43.329Z,17.03
2022-08-23T01:47:09.986Z,17.03
2022-08-23T01:49:36.637Z,17.10
2022-08-23T01:52:03.951Z,17.17
2022-08-23T01:54:30.904Z,17.17
2022-08-23T01:56:57.455Z,17.17
2022-08-23T01:59:24.277Z,17.11
2022-08-23T02:01:51.543Z,17.23
2022-08-23T02:04:18.242Z,17.19
2022-08-23T02:06:45.008Z,17.23
2022-08-23T02:09:17.148Z,17.10
2022-08-23T02:11:44.869Z,17.07
2022-08-23T02:14:19.303Z,16.93
2022-08-23T02:17:03.114Z,17.00
2022-08-23T02:19:33.004Z,16.94
2022-08-23T02:21:59.933Z,16.97
2022-08-23T02:24:26.646Z,16.97
2022-08-23T02:26:57.134Z,17.07
2022-08-23T02:29:26.142Z,17.04
2022-08-23T02:31:52.759Z,16.97
2022-08-23T02:37:04.729Z,17.02
2022-08-23T02:39:31.343Z,16.97
2022-08-23T02:41:57.896Z,17.02
2022-08-23T02:44:24.669Z,16.92
2022-08-23T02:46:51.226Z,16.94
2022-08-23T02:49:18.325Z,16.90
2022-08-23T02:51:45.551Z,16.91
2022-08-23T02:54:12.360Z,16.94
2022-08-23T02:56:39.323Z,16.88
2022-08-23T02:59:06.651Z,16.86
2022-08-23T03:01:36.175Z,16.82
2022-08-23T03:04:03.955Z,16.82
2022-08-23T03:06:30.639Z,16.90
2022-08-23T03:08:57.669Z,16.93
2022-08-23T03:11:25.121Z,16.95
2022-08-23T03:13:52.905Z,16.98
2022-08-23T03:16:20.232Z,16.95
2022-08-23T03:18:47.257Z,16.95
2022-08-23T03:21:14.191Z,16.94
2022-08-23T03:23:41.394Z,16.92
2022-08-23T03:26:09.653Z,16.98
2022-08-23T03:28:37.650Z,16.97
2022-08-23T03:31:04.943Z,16.98
2022-08-23T03:33:31.540Z,17.00
2022-08-23T03:36:03.593Z,17.03
2022-08-23T03:38:30.152Z,17.03
2022-08-23T03:40:57.121Z,16.98
2022-08-23T03:43:23.706Z,16.96
2022-08-23T03:45:50.253Z,17.02
2022-08-23T03:48:17.523Z,17.07
2022-08-23T03:50:44.453Z,17.11
2022-08-23T03:53:12.169Z,17.13
2022-08-23T03:55:42.681Z,17.14
2022-08-23T03:58:10.882Z,17.09
2022-08-23T04:00:38.127Z,17.06
2022-08-23T04:03:04.762Z,17.17
2022-08-23T04:05:31.205Z,17.13
2022-08-23T04:07:57.663Z,17.11
2022-08-23T04:10:24.310Z,17.12
2022-08-23T04:12:52.582Z,17.14
2022-08-23T04:15:19.617Z,17.13
2022-08-23T04:17:46.085Z,17.12
2022-08-23T04:20:12.535Z,17.10
2022-08-23T04:22:39.402Z,17.11
2022-08-23T04:25:09.985Z,17.16
2022-08-23T04:27:52.809Z,17.22
2022-08-23T04:30:20.433Z,17.19
2022-08-23T04:32:47.716Z,17.21
2022-08-23T04:35:14.796Z,17.26
2022-08-23T04:37:41.495Z,17.20
2022-08-23T04:40:31.639Z,17.22
2022-08-23T04:42:58.215Z,17.19
2022-08-23T04:45:27.136Z,17.19
2022-08-23T04:47:54.103Z,17.23
2022-08-23T04:50:21.702Z,17.20
2022-08-23T04:52:48.107Z,17.21
2022-08-23T04:55:14.649Z,17.19
2022-08-23T04:57:42.551Z,17.26
2022-08-23T05:00:12.787Z,17.25
2022-08-23T05:02:39.468Z,17.30
2022-08-23T05:05:09.128Z,17.31
2022-08-23T05:07:42.414Z,17.26
2022-08-23T05:10:12.826Z,17.35
2022-08-23T05:12:39.777Z,17.35
2022-08-23T05:15:07.138Z,17.43
2022-08-23T05:17:33.637Z,17.51
2022-08-23T05:20:00.101Z,17.51
2022-08-23T05:22:26.564Z,17.58
2022-08-23T05:24:53.016Z,17.65
2022-08-23T05:27:19.490Z,17.70
2022-08-23T05:29:46.441Z,17.73
2022-08-23T05:32:12.903Z,17.71
2022-08-23T05:34:39.458Z,17.71
2022-08-23T05:37:05.922Z,17.81
2022-08-23T05:39:36.061Z,17.83
2022-08-23T05:42:03.599Z,17.88
2022-08-23T05:44:30.373Z,17.91
2022-08-23T05:47:04.268Z,17.82
2022-08-23T05:49:36.805Z,17.89
2022-08-23T05:52:08.028Z,17.87
2022-08-23T05:54:35.148Z,17.89
2022-08-23T05:57:02.110Z,17.85
2022-08-23T05:59:28.690Z,17.81
2022-08-23T06:01:55.147Z,17.82
2022-08-23T06:04:21.884Z,17.89
2022-08-23T06:06:48.634Z,17.85
2022-08-23T06:09:17.287Z,17.89
2022-08-23T06:11:45.445Z,17.88
2022-08-23T06:14:12.293Z,17.94
2022-08-23T06:16:42.648Z,18.04
2022-08-23T06:19:09.779Z,18.19
2022-08-23T06:21:37.324Z,18.18
2022-08-23T06:24:05.019Z,18.22
2022-08-23T06:26:35.029Z,18.20
2022-08-23T06:29:06.195Z,18.17
2022-08-23T06:31:50.902Z,18.18
2022-08-23T06:34:19.907Z,18.18
2022-08-23T06:36:52.390Z,18.25
2022-08-23T06:39:21.094Z,18.34
2022-08-23T06:41:50.866Z,18.36
2022-08-23T06:44:18.849Z,18.46
2022-08-23T06:46:46.650Z,18.54
2022-08-23T06:49:13.764Z,18.56
2022-08-23T06:51:46.098Z,18.50
2022-08-23T06:54:14.634Z,18.48
2022-08-23T06:56:42.269Z,18.47
2022-08-23T06:59:09.985Z,18.46
2022-08-23T07:01:45.598Z,18.51
2022-08-23T07:04:15.906Z,18.47
2022-08-23T07:06:42.684Z,18.63
2022-08-23T07:09:09.262Z,18.61
2022-08-23T07:11:35.981Z,18.55
2022-08-23T07:14:08.614Z,18.64
2022-08-23T07:16:41.035Z,18.63
2022-08-23T07:19:09.142Z,18.53
2022-08-23T07:21:36.581Z,18.68
2022-08-23T07:24:03.319Z,18.77
2022-08-23T07:26:29.842Z,18.68
2022-08-23T07:28:57.450Z,18.70
2022-08-23T07:31:30.532Z,18.60
2022-08-23T07:34:02.188Z,18.73
2022-08-23T07:36:30.847Z,18.82
2022-08-23T07:38:57.689Z,18.96
2022-08-23T07:41:26.128Z,19.14
2022-08-23T07:43:52.595Z,19.23
2022-08-23T07:46:19.122Z,19.40
2022-08-23T07:48:54.992Z,19.54
2022-08-23T07:51:22.096Z,19.58
2022-08-23T07:53:48.523Z,19.40
2022-08-23T07:56:16.167Z,19.48
2022-08-23T07:58:42.742Z,19.56
2022-08-23T08:01:16.266Z,19.61
2022-08-23T08:03:44.187Z,19.52
2022-08-23T08:06:32.625Z,19.71
2022-08-23T08:09:00.057Z,19.77
2022-08-23T08:11:34.574Z,19.69
2022-08-23T08:14:05.681Z,19.74
2022-08-23T08:16:38.078Z,19.64
2022-08-23T08:19:08.019Z,19.80
2022-08-23T08:21:35.477Z,19.89
2022-08-23T08:24:02.875Z,19.81
2022-08-23T08:26:29.530Z,19.83
2022-08-23T08:28:56.469Z,20.03
2022-08-23T08:31:24.324Z,20.20
2022-08-23T08:33:51.020Z,20.46
2022-08-23T08:36:33.682Z,20.51
2022-08-23T08:39:00.580Z,20.61
2022-08-23T08:41:48.677Z,20.64
2022-08-23T08:44:36.201Z,20.58
2022-08-23T08:47:33.604Z,20.80
2022-08-23T08:50:11.690Z,21.00
2022-08-23T08:52:48.342Z,21.53
2022-08-23T08:55:21.228Z,21.79
2022-08-23T08:57:49.417Z,22.06
2022-08-23T09:00:25.577Z,22.36
2022-08-23T09:02:52.739Z,22.63
2022-08-23T09:05:26.849Z,22.98
2022-08-23T09:08:04.325Z,23.12
2022-08-23T09:10:37.058Z,23.55
2022-08-23T09:13:12.689Z,23.35
2022-08-23T09:15:53.058Z,23.44
2022-08-23T09:18:19.548Z,23.44
2022-08-23T09:20:48.019Z,23.42
2022-08-23T09:23:20.640Z,23.52
2022-08-23T09:25:57.099Z,23.53
2022-08-23T09:28:30.271Z,23.32
2022-08-23T09:30:58.720Z,23.28
2022-08-23T09:33:43.228Z,23.36
2022-08-23T09:36:20.908Z,23.38
2022-08-23T09:38:56.555Z,23.37
2022-08-23T09:41:37.889Z,23.63
2022-08-23T09:44:07.564Z,24.06
2022-08-23T09:46:39.147Z,24.35
2022-08-23T09:49:23.011Z,24.58
2022-08-23T09:51:50.644Z,24.68
2022-08-23T09:54:25.060Z,24.40
2022-08-23T09:56:57.535Z,24.17
2022-08-23T09:59:27.467Z,24.37
2022-08-23T10:01:56.723Z,24.04
2022-08-23T10:04:29.300Z,23.74
2022-08-23T10:06:56.571Z,23.50
2022-08-23T10:09:32.669Z,23.48
2022-08-23T10:12:00.785Z,23.36
2022-08-23T10:14:32.903Z,23.30
2022-08-23T10:17:12.226Z,23.20
2022-08-23T10:19:49.081Z,23.33
2022-08-23T10:22:18.444Z,23.37
2022-08-23T10:24:52.485Z,23.37
2022-08-23T10:27:53.112Z,23.52
2022-08-23T10:30:23.667Z,23.65
2022-08-23T10:33:01.070Z,23.30
2022-08-23T10:35:29.554Z,23.35
2022-08-23T10:38:08.562Z,23.49
2022-08-23T10:40:42.421Z,23.62
2022-08-23T10:43:25.996Z,23.68
2022-08-23T10:45:57.106Z,23.69
2022-08-23T10:48:31.761Z,23.48
2022-08-23T10:51:02.163Z,23.62
2022-08-23T10:53:59.777Z,23.73
2022-08-23T10:56:27.974Z,23.45
2022-08-23T10:58:56.987Z,23.43
2022-08-23T11:01:50.028Z,23.30
2022-08-23T11:04:23.645Z,23.25
2022-08-23T11:06:52.933Z,23.16
2022-08-23T11:09:19.425Z,23.21
2022-08-23T11:12:11.012Z,22.93
2022-08-23T11:14:44.395Z,22.80
2022-08-23T11:17:23.310Z,22.90
2022-08-23T11:20:07.416Z,22.95
2022-08-23T11:23:01.815Z,22.97
2022-08-23T11:25:28.278Z,22.47
2022-08-23T11:28:25.829Z,22.52
2022-08-23T11:30:57.449Z,22.55
2022-08-23T11:33:33.121Z,22.50
2022-08-23T11:36:09.004Z,22.47
2022-08-23T11:38:58.450Z,22.53
2022-08-23T11:41:28.868Z,22.69
2022-08-23T11:43:56.480Z,22.83
2022-08-23T11:46:22.949Z,22.71
2022-08-23T11:48:54.559Z,23.21
2022-08-23T11:51:39.180Z,23.46
2022-08-23T11:54:18.114Z,23.72
2022-08-23T11:57:02.921Z,23.65
2022-08-23T12:00:10.738Z,23.71
2022-08-23T12:03:08.264Z,23.40
2022-08-23T12:05:34.866Z,23.44
2022-08-23T12:08:01.583Z,23.44
2022-08-23T12:10:40.613Z,23.48
2022-08-23T12:13:24.792Z,23.40
2022-08-23T12:16:29.066Z,23.31
2022-08-23T12:18:58.377Z,23.31
2022-08-23T12:21:34.106Z,23.27
2022-08-23T12:24:14.494Z,23.20
2022-08-23T12:26:49.650Z,22.97
2022-08-23T12:29:25.783Z,23.11
2022-08-23T12:31:59.509Z,22.90
2022-08-23T12:34:42.089Z,23.04
2022-08-23T12:37:30.512Z,22.79
2022-08-23T12:39:59.461Z,23.20
2022-08-23T12:42:31.107Z,23.06
2022-08-23T12:45:13.035Z,23.21
2022-08-23T12:47:44.663Z,23.27
2022-08-23T12:50:15.075Z,23.35
2022-08-23T12:52:41.914Z,23.21
2022-08-23T12:55:18.470Z,23.33
2022-08-23T12:57:54.290Z,23.30
2022-08-23T13:00:34.027Z,23.25
2022-08-23T13:03:04.886Z,23.10
2022-08-23T13:05:39.477Z,23.09
2022-08-23T13:08:09.869Z,23.05
2022-08-23T13:10:38.298Z,22.90
2022-08-23T13:13:05.005Z,22.77
2022-08-23T13:15:45.940Z,22.87
2022-08-23T13:18:27.268Z,22.90
2022-08-23T13:21:17.499Z,22.79
2022-08-23T13:23:44.665Z,22.65
2022-08-23T13:26:40.796Z,22.56
2022-08-23T13:29:09.092Z,22.53
2022-08-23T13:31:53.262Z,22.35
2022-08-23T13:34:39.280Z,22.23
2022-08-23T13:37:26.819Z,22.12
2022-08-23T13:40:00.026Z,22.19
2022-08-23T13:42:48.435Z,22.31
2022-08-23T13:45:26.252Z,22.36
2022-08-23T13:48:03.487Z,22.46
2022-08-23T13:50:36.544Z,22.55
2022-08-23T13:53:19.579Z,22.85
2022-08-23T13:55:53.158Z,22.83
2022-08-23T13:58:29.334Z,23.07
2022-08-23T14:00:58.950Z,23.18
2022-08-23T14:03:29.089Z,23.12
2022-08-23T14:05:55.809Z,23.00
2022-08-23T14:08:22.352Z,23.14
2022-08-23T14:10:49.380Z,23.13
2022-08-23T14:13:17.466Z,23.09
2022-08-23T14:16:32.916Z,23.05
2022-08-23T14:18:32.471Z,22.95
2022-08-23T14:20:59.297Z,22.93
2022-08-23T14:23:25.820Z,23.05
2022-08-23T14:25:54.619Z,23.08
2022-08-23T14:28:23.969Z,23.15
2022-08-23T14:30:51.453Z,23.24
2022-08-23T14:33:20.087Z,23.40
2022-08-23T14:35:46.792Z,23.46
2022-08-23T14:38:15.147Z,23.30
2022-08-23T14:41:05.552Z,23.30
2022-08-23T14:43:32.095Z,23.36
2022-08-23T14:45:59.115Z,23.45
2022-08-23T14:48:26.375Z,23.51
2022-08-23T14:50:53.533Z,23.60
2022-08-23T14:53:27.617Z,23.67
2022-08-23T14:56:12.264Z,23.79
2022-08-23T14:58:41.851Z,23.94
2022-08-23T15:01:09.270Z,23.91
2022-08-23T15:03:36.097Z,23.88
2022-08-23T15:06:03.359Z,24.16
2022-08-23T15:08:29.785Z,24.31
2022-08-23T15:13:55.229Z,24.49
2022-08-23T15:16:23.779Z,24.50
2022-08-23T15:18:51.284Z,24.50
2022-08-23T15:21:18.583Z,24.46
2022-08-23T15:23:46.536Z,24.41
2022-08-23T15:26:15.136Z,24.51
2022-08-23T15:28:41.966Z,24.59
2022-08-23T15:31:08.874Z,24.52
2022-08-23T15:33:35.546Z,24.57
2022-08-23T15:36:02.348Z,24.57
2022-08-23T15:38:31.638Z,24.38
2022-08-23T15:40:58.739Z,24.36
2022-08-23T15:43:33.968Z,24.25
2022-08-23T15:46:11.278Z,24.13
2022-08-23T15:48:44.379Z,23.99
2022-08-23T15:51:11.240Z,23.85
2022-08-23T15:53:39.572Z,23.87
2022-08-23T15:56:11.902Z,23.79
2022-08-23T15:58:38.874Z,23.91
2022-08-23T16:01:09.108Z,24.21
2022-08-23T16:03:37.998Z,24.36
2022-08-23T16:06:50.994Z,24.51
2022-08-23T16:09:21.158Z,24.88
2022-08-23T16:11:48.224Z,24.84
2022-08-23T16:14:15.545Z,24.69
2022-08-23T16:16:42.701Z,24.71
2022-08-23T16:19:09.811Z,24.49
2022-08-23T16:21:36.816Z,24.48
2022-08-23T16:24:06.625Z,24.40
2022-08-23T16:26:35.760Z,24.40
2022-08-23T16:29:06.561Z,24.24
2022-08-23T16:31:38.829Z,24.15
2022-08-23T16:34:08.708Z,24.07
2022-08-23T16:36:35.411Z,23.89
2022-08-23T16:39:02.019Z,23.69
2022-08-23T16:41:28.661Z,23.51
2022-08-23T16:43:55.200Z,23.38
2022-08-23T16:46:24.813Z,23.07
2022-08-23T16:49:17.081Z,22.97
2022-08-23T16:52:08.260Z,22.89
2022-08-23T16:54:34.877Z,22.92
2022-08-23T16:57:02.144Z,22.99
2022-08-23T16:59:29.870Z,23.07
2022-08-23T17:01:59.526Z,23.15
2022-08-23T17:04:31.150Z,23.28
2022-08-23T17:07:32.444Z,23.25
2022-08-23T17:10:11.705Z,23.29
2022-08-23T17:12:58.578Z,23.21
2022-08-23T17:16:08.313Z,23.12
2022-08-23T17:18:50.778Z,23.10
2022-08-23T17:21:47.129Z,23.04
2022-08-23T17:24:54.718Z,22.99
2022-08-23T17:28:17.262Z,22.94
2022-08-23T17:31:24.495Z,22.86
2022-08-23T17:34:06.049Z,22.79
2022-08-23T17:36:50.575Z,22.68
2022-08-23T17:40:21.267Z,22.62
2022-08-23T17:46:24.771Z,22.39
2022-08-23T17:49:00.831Z,22.24
2022-08-23T17:51:46.832Z,22.16
2022-08-23T17:54:23.024Z,22.10
2022-08-23T17:57:00.724Z,21.95
2022-08-23T17:59:35.913Z,21.80
2022-08-23T18:02:26.107Z,21.68
2022-08-23T18:05:33.537Z,21.64
2022-08-23T18:11:47.173Z,21.33
2022-08-23T18:14:34.218Z,21.29
2022-08-23T18:17:14.861Z,21.23
2022-08-23T18:19:45.895Z,21.16
2022-08-23T18:22:15.306Z,21.15
2022-08-23T18:24:43.022Z,21.12
2022-08-23T18:27:28.040Z,21.09
2022-08-23T18:29:54.570Z,21.09
2022-08-23T18:32:21.015Z,21.10
2022-08-23T18:34:47.451Z,21.14
2022-08-23T18:37:17.027Z,21.09
2022-08-23T18:39:44.140Z,21.05
2022-08-23T18:42:10.657Z,21.04
2022-08-23T18:44:37.155Z,21.02
2022-08-23T18:47:04.017Z,21.01
2022-08-23T18:49:31.995Z,21.01
2022-08-23T18:51:59.132Z,21.01
2022-08-23T18:54:25.872Z,21.01
2022-08-23T18:56:52.522Z,21.02
2022-08-23T18:59:19.043Z,21.04
2022-08-23T19:01:51.488Z,21.02
2022-08-23T19:04:33.069Z,21.03
2022-08-23T19:06:59.960Z,21.09
2022-08-23T19:12:23.269Z,21.00
2022-08-23T19:14:50.182Z,21.01
2022-08-23T19:17:19.139Z,21.02
2022-08-23T19:19:48.277Z,21.01
2022-08-23T19:22:25.105Z,20.97
2022-08-23T19:24:56.012Z,20.92
2022-08-23T19:27:38.824Z,20.91
2022-08-23T19:30:17.463Z,20.90
2022-08-23T19:32:48.356Z,20.83
2022-08-23T19:35:16.138Z,20.85
2022-08-23T19:37:43.754Z,20.85
2022-08-23T19:40:11.005Z,20.85
2022-08-23T19:42:37.752Z,20.84
2022-08-23T19:45:06.250Z,20.83
2022-08-23T19:47:32.911Z,20.84
2022-08-23T19:49:59.525Z,20.85
2022-08-23T19:52:26.263Z,20.86
2022-08-23T19:54:53.187Z,20.85
2022-08-23T19:57:20.346Z,20.86
2022-08-23T19:59:46.957Z,20.88
2022-08-23T20:02:14.508Z,20.86
2022-08-23T20:04:41.209Z,20.86
2022-08-23T20:07:07.703Z,20.83
2022-08-23T20:09:34.571Z,20.82
2022-08-23T20:12:01.204Z,20.80
2022-08-23T20:14:31.258Z,20.77
2022-08-23T20:16:57.894Z,20.77
2022-08-23T20:19:25.365Z,20.74
2022-08-23T20:22:15.699Z,20.74
2022-08-23T20:24:51.259Z,20.72
2022-08-23T20:27:28.323Z,20.71
2022-08-23T20:30:00.153Z,20.69
2022-08-23T20:32:28.208Z,20.69
2022-08-23T20:34:54.866Z,20.69
2022-08-23T20:37:21.654Z,20.68
2022-08-23T20:39:48.242Z,20.68
2022-08-23T20:42:15.483Z,20.68
2022-08-23T20:44:42.073Z,20.62
2022-08-23T20:47:08.769Z,20.60
2022-08-23T20:49:35.266Z,20.58
2022-08-23T20:52:02.245Z,20.57
2022-08-23T20:54:28.829Z,20.55
2022-08-23T20:56:55.872Z,20.53
2022-08-23T20:59:22.514Z,20.56
2022-08-23T21:01:50.177Z,20.50
2022-08-23T21:04:17.572Z,20.47
2022-08-23T21:06:49.942Z,20.44
2022-08-23T21:09:22.574Z,20.45
2022-08-23T21:11:51.461Z,20.40
2022-08-23T21:14:18.956Z,20.39
2022-08-23T21:16:46.727Z,20.38
2022-08-23T21:19:14.533Z,20.38
2022-08-23T21:21:41.667Z,20.35
2022-08-23T21:24:09.386Z,20.36
2022-08-23T21:26:36.956Z,20.35
2022-08-23T21:29:04.982Z,20.33
2022-08-23T21:31:31.701Z,20.31
2022-08-23T21:34:00.201Z,20.31
2022-08-23T21:36:27.160Z,20.26
2022-08-23T21:38:53.608Z,20.19
2022-08-23T21:41:34.702Z,20.09
2022-08-23T21:44:03.017Z,20.02
2022-08-23T21:46:29.755Z,20.03
2022-08-23T21:48:56.861Z,19.97
2022-08-23T21:51:23.718Z,19.89
2022-08-23T21:53:50.876Z,19.87
2022-08-23T21:56:17.684Z,19.85
2022-08-23T21:58:44.252Z,19.83
2022-08-23T22:01:11.387Z,19.84
2022-08-23T22:03:38.352Z,19.89
2022-08-23T22:06:05.354Z,19.93
2022-08-23T22:08:32.078Z,19.96
2022-08-23T22:11:06.167Z,19.96
2022-08-23T22:13:33.218Z,19.96
2022-08-23T22:16:01.505Z,19.94
2022-08-23T22:18:31.281Z,19.94
2022-08-23T22:20:58.277Z,19.95
2022-08-23T22:23:26.277Z,19.89
2022-08-23T22:25:55.942Z,19.84
2022-08-23T22:28:22.627Z,19.73
2022-08-23T22:30:49.112Z,19.70
2022-08-23T22:33:15.514Z,19.65
2022-08-23T22:35:48.385Z,19.64
2022-08-23T22:38:15.498Z,19.64
2022-08-23T22:40:52.910Z,19.67
2022-08-23T22:43:20.002Z,19.66
2022-08-23T22:45:57.325Z,19.66
2022-08-23T22:48:24.961Z,19.65
2022-08-23T22:50:51.542Z,19.67
2022-08-23T22:53:19.236Z,19.67
2022-08-23T22:55:51.902Z,19.65
2022-08-23T22:58:18.358Z,19.57
2022-08-23T23:00:45.208Z,19.51
2022-08-23T23:03:11.739Z,19.47
2022-08-23T23:05:38.332Z,19.45
2022-08-23T23:08:24.051Z,19.46
2022-08-23T23:10:50.664Z,19.43
2022-08-23T23:13:17.117Z,19.43
2022-08-23T23:15:43.881Z,19.42
2022-08-23T23:18:11.090Z,19.41
2022-08-23T23:20:41.166Z,19.40
2022-08-23T23:23:15.167Z,19.35
2022-08-23T23:25:43.217Z,19.25
2022-08-23T23:28:11.758Z,19.20
2022-08-23T23:30:39.076Z,19.13
2022-08-23T23:36:57.272Z,19.15
2022-08-23T23:39:24.426Z,19.18
2022-08-23T23:41:51.109Z,19.21
2022-08-23T23:44:24.317Z,19.28
2022-08-23T23:46:57.430Z,19.32
2022-08-23T23:49:32.048Z,19.35
2022-08-23T23:51:59.208Z,19.37
2022-08-23T23:54:25.647Z,19.40
2022-08-23T23:56:52.071Z,19.42
2022-08-23T23:59:19.546Z,19.42
